sensor_id;sensor_type;location;lat;lon;timestamp;P1;P2;P0
41382;PMS5003;27971;53.902;9.118;2022-11-20T00:05:31;2.79;2.25;
41382;PMS5003;27971;53.902;9.118;2022-11-20T00:07:32;2.58;2.31;
41382;PMS5003;27971;53.902;9.118;2022-11-20T00:09:34;3.11;2.56;
41382;PMS5003;27971;53.902;9.118;2022-11-20T00:11:37;2.59;2.33;
41382;PMS5003;27971;53.902;9.118;2022-11-20T00:13:39;2.35;2.06;
41382;PMS5003;27971;53.902;9.118;2022-11-20T00:15:42;3.43;2.93;
41382;PMS5003;27971;53.902;9.118;2022-11-20T00:17:45;4.28;2.87;
41382;PMS5003;27971;53.902;9.118;2022-11-20T00:19:48;2.73;2.52;
41382;PMS5003;27971;53.902;9.118;2022-11-20T00:21:50;2.17;1.85;
41382;PMS5003;27971;53.902;9.118;2022-11-20T00:23:54;2.81;2.54;
41382;PMS5003;27971;53.902;9.118;2022-11-20T00:25:56;3.22;3.22;
41382;PMS5003;27971;53.902;9.118;2022-11-20T00:27:59;2.68;2.65;
41382;PMS5003;27971;53.902;9.118;2022-11-20T00:30:02;2.17;2.08;
41382;PMS5003;27971;53.902;9.118;2022-11-20T00:32:05;3.28;2.18;
41382;PMS5003;27971;53.902;9.118;2022-11-20T00:34:08;2.99;2.45;
41382;PMS5003;27971;53.902;9.118;2022-11-20T00:36:11;2.67;2.39;
41382;PMS5003;27971;53.902;9.118;2022-11-20T00:38:12;2.27;2.01;
41382;PMS5003;27971;53.902;9.118;2022-11-20T00:40:15;2.65;1.9;
41382;PMS5003;27971;53.902;9.118;2022-11-20T00:42:18;1.48;1.33;
41382;PMS5003;27971;53.902;9.118;2022-11-20T00:44:21;3.19;2.44;
41382;PMS5003;27971;53.902;9.118;2022-11-20T00:46:25;2.61;2.27;
41382;PMS5003;27971;53.902;9.118;2022-11-20T00:48:27;2.38;1.99;
41382;PMS5003;27971;53.902;9.118;2022-11-20T00:50:30;2.64;2.34;
41382;PMS5003;27971;53.902;9.118;2022-11-20T00:52:32;2.32;2.26;
41382;PMS5003;27971;53.902;9.118;2022-11-20T00:54:35;2.56;2.1;
41382;PMS5003;27971;53.902;9.118;2022-11-20T00:56:37;2.43;2.09;
41382;PMS5003;27971;53.902;9.118;2022-11-20T00:58:40;2.79;2.2;
41382;PMS5003;27971;53.902;9.118;2022-11-20T01:00:43;3.92;2.8;
41382;PMS5003;27971;53.902;9.118;2022-11-20T01:02:45;2.29;1.89;
41382;PMS5003;27971;53.902;9.118;2022-11-20T01:04:49;2.03;1.91;
41382;PMS5003;27971;53.902;9.118;2022-11-20T01:06:51;1.88;1.49;
41382;PMS5003;27971;53.902;9.118;2022-11-20T01:08:55;1.76;1.61;
41382;PMS5003;27971;53.902;9.118;2022-11-20T01:10:58;2.77;2.02;
41382;PMS5003;27971;53.902;9.118;2022-11-20T01:13:00;3.55;2.44;
41382;PMS5003;27971;53.902;9.118;2022-11-20T01:15:02;2.53;1.57;
41382;PMS5003;27971;53.902;9.118;2022-11-20T01:17:05;4.14;2.39;
41382;PMS5003;27971;53.902;9.118;2022-11-20T01:19:09;2.76;2.69;
41382;PMS5003;27971;53.902;9.118;2022-11-20T01:21:12;3.36;2.58;
41382;PMS5003;27971;53.902;9.118;2022-11-20T01:23:14;1.84;1.78;
41382;PMS5003;27971;53.902;9.118;2022-11-20T01:25:16;2.72;2.26;
41382;PMS5003;27971;53.902;9.118;2022-11-20T01:27:19;3.42;2.72;
41382;PMS5003;27971;53.902;9.118;2022-11-20T01:29:22;3.17;2.6;
41382;PMS5003;27971;53.902;9.118;2022-11-20T01:31:25;2.43;2.17;
41382;PMS5003;27971;53.902;9.118;2022-11-20T01:33:28;1.72;1.55;
41382;PMS5003;27971;53.902;9.118;2022-11-20T01:35:30;4.28;3.34;
41382;PMS5003;27971;53.902;9.118;2022-11-20T01:37:33;3.24;2.42;
41382;PMS5003;27971;53.902;9.118;2022-11-20T01:39:35;2.57;2.33;
41382;PMS5003;27971;53.902;9.118;2022-11-20T01:41:37;2.49;2.09;
41382;PMS5003;27971;53.902;9.118;2022-11-20T01:43:39;3.24;2.41;
41382;PMS5003;27971;53.902;9.118;2022-11-20T01:45:50;3.71;2.68;
41382;PMS5003;27971;53.902;9.118;2022-11-20T01:47:45;2.97;2.43;
41382;PMS5003;27971;53.902;9.118;2022-11-20T01:49:48;4.58;3.22;
41382;PMS5003;27971;53.902;9.118;2022-11-20T01:51:50;3.37;2.59;
41382;PMS5003;27971;53.902;9.118;2022-11-20T01:53:52;2.87;2.41;
41382;PMS5003;27971;53.902;9.118;2022-11-20T01:55:56;3.26;2.87;
41382;PMS5003;27971;53.902;9.118;2022-11-20T01:57:58;2.4;1.72;
41382;PMS5003;27971;53.902;9.118;2022-11-20T02:00:03;3.11;2.37;
41382;PMS5003;27971;53.902;9.118;2022-11-20T02:02:05;2.0;1.6;
41382;PMS5003;27971;53.902;9.118;2022-11-20T02:04:07;1.96;1.6;
41382;PMS5003;27971;53.902;9.118;2022-11-20T02:06:11;2.64;2.24;
41382;PMS5003;27971;53.902;9.118;2022-11-20T02:08:13;2.64;2.12;
41382;PMS5003;27971;53.902;9.118;2022-11-20T02:10:15;2.45;2.25;
41382;PMS5003;27971;53.902;9.118;2022-11-20T02:12:18;2.78;2.37;
41382;PMS5003;27971;53.902;9.118;2022-11-20T02:14:20;2.83;2.44;
41382;PMS5003;27971;53.902;9.118;2022-11-20T02:16:23;2.39;2.06;
41382;PMS5003;27971;53.902;9.118;2022-11-20T02:18:26;2.47;2.23;
41382;PMS5003;27971;53.902;9.118;2022-11-20T02:20:29;2.51;2.13;
41382;PMS5003;27971;53.902;9.118;2022-11-20T02:22:33;2.4;2.27;
41382;PMS5003;27971;53.902;9.118;2022-11-20T02:24:33;1.67;1.64;
41382;PMS5003;27971;53.902;9.118;2022-11-20T02:26:38;2.12;2.12;
41382;PMS5003;27971;53.902;9.118;2022-11-20T02:28:39;2.64;2.25;
41382;PMS5003;27971;53.902;9.118;2022-11-20T02:30:41;2.16;2.16;
41382;PMS5003;27971;53.902;9.118;2022-11-20T02:32:45;2.71;2.3;
41382;PMS5003;27971;53.902;9.118;2022-11-20T02:34:47;2.6;1.92;
41382;PMS5003;27971;53.902;9.118;2022-11-20T02:36:50;2.96;2.56;
41382;PMS5003;27971;53.902;9.118;2022-11-20T02:38:53;2.89;2.58;
41382;PMS5003;27971;53.902;9.118;2022-11-20T02:40:56;3.16;3.12;
41382;PMS5003;27971;53.902;9.118;2022-11-20T02:42:59;1.59;1.59;
41382;PMS5003;27971;53.902;9.118;2022-11-20T02:45:02;1.99;1.99;
41382;PMS5003;27971;53.902;9.118;2022-11-20T02:47:04;2.16;1.87;
41382;PMS5003;27971;53.902;9.118;2022-11-20T02:49:07;2.57;2.17;
41382;PMS5003;27971;53.902;9.118;2022-11-20T02:51:10;2.71;2.54;
41382;PMS5003;27971;53.902;9.118;2022-11-20T02:53:13;1.88;1.14;
41382;PMS5003;27971;53.902;9.118;2022-11-20T02:55:15;3.16;2.39;
41382;PMS5003;27971;53.902;9.118;2022-11-20T02:57:18;2.73;2.0;
41382;PMS5003;27971;53.902;9.118;2022-11-20T02:59:21;2.19;1.9;
41382;PMS5003;27971;53.902;9.118;2022-11-20T03:01:24;2.43;2.43;
41382;PMS5003;27971;53.902;9.118;2022-11-20T03:03:27;2.65;1.91;
41382;PMS5003;27971;53.902;9.118;2022-11-20T03:05:29;2.06;1.6;
41382;PMS5003;27971;53.902;9.118;2022-11-20T03:07:32;1.3;1.3;
41382;PMS5003;27971;53.902;9.118;2022-11-20T03:09:35;2.67;2.56;
41382;PMS5003;27971;53.902;9.118;2022-11-20T03:11:38;3.08;2.66;
41382;PMS5003;27971;53.902;9.118;2022-11-20T03:13:40;3.13;3.13;
41382;PMS5003;27971;53.902;9.118;2022-11-20T03:15:42;2.21;1.96;
41382;PMS5003;27971;53.902;9.118;2022-11-20T03:17:44;2.16;1.83;
41382;PMS5003;27971;53.902;9.118;2022-11-20T03:19:47;2.83;2.66;
41382;PMS5003;27971;53.902;9.118;2022-11-20T03:21:49;1.99;1.52;
41382;PMS5003;27971;53.902;9.118;2022-11-20T03:23:52;2.34;1.68;
41382;PMS5003;27971;53.902;9.118;2022-11-20T03:25:54;2.4;1.87;
41382;PMS5003;27971;53.902;9.118;2022-11-20T03:27:56;2.47;2.32;
41382;PMS5003;27971;53.902;9.118;2022-11-20T03:29:59;2.29;1.86;
41382;PMS5003;27971;53.902;9.118;2022-11-20T03:32:01;2.63;2.29;
41382;PMS5003;27971;53.902;9.118;2022-11-20T03:34:04;2.58;1.88;
41382;PMS5003;27971;53.902;9.118;2022-11-20T03:36:07;1.64;1.53;
41382;PMS5003;27971;53.902;9.118;2022-11-20T03:38:10;1.8;1.8;
41382;PMS5003;27971;53.902;9.118;2022-11-20T03:40:13;1.56;1.3;
41382;PMS5003;27971;53.902;9.118;2022-11-20T03:42:16;1.8;1.52;
41382;PMS5003;27971;53.902;9.118;2022-11-20T03:44:20;1.34;1.16;
41382;PMS5003;27971;53.902;9.118;2022-11-20T03:46:20;1.99;1.19;
41382;PMS5003;27971;53.902;9.118;2022-11-20T03:48:23;1.53;1.08;
41382;PMS5003;27971;53.902;9.118;2022-11-20T03:50:26;1.4;1.36;
41382;PMS5003;27971;53.902;9.118;2022-11-20T03:52:28;2.32;1.66;
41382;PMS5003;27971;53.902;9.118;2022-11-20T03:54:31;2.12;1.49;
41382;PMS5003;27971;53.902;9.118;2022-11-20T03:56:34;1.39;0.96;
41382;PMS5003;27971;53.902;9.118;2022-11-20T03:58:35;3.12;2.26;
41382;PMS5003;27971;53.902;9.118;2022-11-20T04:00:39;2.4;2.23;
41382;PMS5003;27971;53.902;9.118;2022-11-20T04:02:41;2.0;1.73;
41382;PMS5003;27971;53.902;9.118;2022-11-20T04:04:43;1.63;1.54;
41382;PMS5003;27971;53.902;9.118;2022-11-20T04:06:46;1.49;1.46;
41382;PMS5003;27971;53.902;9.118;2022-11-20T04:08:48;2.08;1.84;
41382;PMS5003;27971;53.902;9.118;2022-11-20T04:10:51;1.98;1.71;
41382;PMS5003;27971;53.902;9.118;2022-11-20T04:12:53;1.83;1.57;
41382;PMS5003;27971;53.902;9.118;2022-11-20T04:14:56;1.41;1.41;
41382;PMS5003;27971;53.902;9.118;2022-11-20T04:16:59;2.77;2.57;
41382;PMS5003;27971;53.902;9.118;2022-11-20T04:19:03;2.26;1.87;
41382;PMS5003;27971;53.902;9.118;2022-11-20T04:21:05;1.92;1.42;
41382;PMS5003;27971;53.902;9.118;2022-11-20T04:23:08;1.01;1.01;
41382;PMS5003;27971;53.902;9.118;2022-11-20T04:25:12;2.3;2.14;
41382;PMS5003;27971;53.902;9.118;2022-11-20T04:27:14;2.21;1.68;
41382;PMS5003;27971;53.902;9.118;2022-11-20T04:29:17;2.59;2.08;
41382;PMS5003;27971;53.902;9.118;2022-11-20T04:31:21;1.96;1.38;
41382;PMS5003;27971;53.902;9.118;2022-11-20T04:33:23;2.17;1.87;
41382;PMS5003;27971;53.902;9.118;2022-11-20T04:35:25;1.6;1.37;
41382;PMS5003;27971;53.902;9.118;2022-11-20T04:37:28;2.27;1.89;
41382;PMS5003;27971;53.902;9.118;2022-11-20T04:39:30;2.46;1.66;
41382;PMS5003;27971;53.902;9.118;2022-11-20T04:41:33;2.29;2.29;
41382;PMS5003;27971;53.902;9.118;2022-11-20T04:43:35;1.06;1.06;
41382;PMS5003;27971;53.902;9.118;2022-11-20T04:45:38;1.87;1.7;
41382;PMS5003;27971;53.902;9.118;2022-11-20T04:47:41;1.85;1.85;
41382;PMS5003;27971;53.902;9.118;2022-11-20T04:49:44;2.13;1.67;
41382;PMS5003;27971;53.902;9.118;2022-11-20T04:51:47;1.48;1.42;
41382;PMS5003;27971;53.902;9.118;2022-11-20T04:53:49;1.72;1.19;
41382;PMS5003;27971;53.902;9.118;2022-11-20T04:55:52;1.77;1.67;
41382;PMS5003;27971;53.902;9.118;2022-11-20T04:57:54;2.51;1.52;
41382;PMS5003;27971;53.902;9.118;2022-11-20T04:59:58;1.93;1.51;
41382;PMS5003;27971;53.902;9.118;2022-11-20T05:02:00;1.72;1.43;
41382;PMS5003;27971;53.902;9.118;2022-11-20T05:04:02;2.28;1.88;
41382;PMS5003;27971;53.902;9.118;2022-11-20T05:06:05;1.91;1.6;
41382;PMS5003;27971;53.902;9.118;2022-11-20T05:08:07;1.91;1.8;
41382;PMS5003;27971;53.902;9.118;2022-11-20T05:10:10;1.72;1.53;
41382;PMS5003;27971;53.902;9.118;2022-11-20T05:12:13;2.3;1.54;
41382;PMS5003;27971;53.902;9.118;2022-11-20T05:14:16;1.77;1.72;
41382;PMS5003;27971;53.902;9.118;2022-11-20T05:16:19;2.0;1.8;
41382;PMS5003;27971;53.902;9.118;2022-11-20T05:18:22;1.8;1.19;
41382;PMS5003;27971;53.902;9.118;2022-11-20T05:20:24;1.7;1.5;
41382;PMS5003;27971;53.902;9.118;2022-11-20T05:22:26;1.97;1.39;
41382;PMS5003;27971;53.902;9.118;2022-11-20T05:24:29;1.42;1.3;
41382;PMS5003;27971;53.902;9.118;2022-11-20T05:26:31;2.08;1.52;
41382;PMS5003;27971;53.902;9.118;2022-11-20T05:28:34;2.25;2.05;
41382;PMS5003;27971;53.902;9.118;2022-11-20T05:30:37;2.06;1.92;
41382;PMS5003;27971;53.902;9.118;2022-11-20T05:32:39;1.5;1.33;
41382;PMS5003;27971;53.902;9.118;2022-11-20T05:34:41;1.59;1.52;
41382;PMS5003;27971;53.902;9.118;2022-11-20T05:36:44;1.61;1.61;
41382;PMS5003;27971;53.902;9.118;2022-11-20T05:38:46;1.2;0.68;
41382;PMS5003;27971;53.902;9.118;2022-11-20T05:40:48;1.1;0.89;
41382;PMS5003;27971;53.902;9.118;2022-11-20T05:42:51;1.97;1.97;
41382;PMS5003;27971;53.902;9.118;2022-11-20T05:44:53;2.46;1.46;
41382;PMS5003;27971;53.902;9.118;2022-11-20T05:46:55;1.19;0.91;
41382;PMS5003;27971;53.902;9.118;2022-11-20T05:48:58;1.59;1.24;
41382;PMS5003;27971;53.902;9.118;2022-11-20T05:51:01;0.93;0.93;
41382;PMS5003;27971;53.902;9.118;2022-11-20T05:53:03;1.67;1.39;
41382;PMS5003;27971;53.902;9.118;2022-11-20T05:55:06;2.03;1.43;
41382;PMS5003;27971;53.902;9.118;2022-11-20T05:57:09;2.5;1.93;
41382;PMS5003;27971;53.902;9.118;2022-11-20T05:59:11;1.58;1.32;
41382;PMS5003;27971;53.902;9.118;2022-11-20T06:01:14;1.59;1.29;
41382;PMS5003;27971;53.902;9.118;2022-11-20T06:03:15;2.03;1.98;
41382;PMS5003;27971;53.902;9.118;2022-11-20T06:05:19;1.63;1.38;
41382;PMS5003;27971;53.902;9.118;2022-11-20T06:07:21;1.34;1.04;
41382;PMS5003;27971;53.902;9.118;2022-11-20T06:09:23;1.87;1.54;
41382;PMS5003;27971;53.902;9.118;2022-11-20T06:11:26;1.67;1.6;
41382;PMS5003;27971;53.902;9.118;2022-11-20T06:13:28;1.4;1.2;
41382;PMS5003;27971;53.902;9.118;2022-11-20T06:15:30;1.81;1.81;
41382;PMS5003;27971;53.902;9.118;2022-11-20T06:17:34;1.67;1.64;
41382;PMS5003;27971;53.902;9.118;2022-11-20T06:19:36;2.43;1.93;
41382;PMS5003;27971;53.902;9.118;2022-11-20T06:21:38;1.54;1.54;
41382;PMS5003;27971;53.902;9.118;2022-11-20T06:23:41;2.0;1.39;
41382;PMS5003;27971;53.902;9.118;2022-11-20T06:25:44;1.6;1.43;
41382;PMS5003;27971;53.902;9.118;2022-11-20T06:27:46;1.94;1.44;
41382;PMS5003;27971;53.902;9.118;2022-11-20T06:29:48;2.06;1.53;
41382;PMS5003;27971;53.902;9.118;2022-11-20T06:31:50;1.8;1.71;
41382;PMS5003;27971;53.902;9.118;2022-11-20T06:33:54;1.84;1.41;
41382;PMS5003;27971;53.902;9.118;2022-11-20T06:35:56;2.36;1.68;
41382;PMS5003;27971;53.902;9.118;2022-11-20T06:37:59;2.56;1.6;
41382;PMS5003;27971;53.902;9.118;2022-11-20T06:40:02;0.89;0.73;
41382;PMS5003;27971;53.902;9.118;2022-11-20T06:42:04;2.0;1.89;
41382;PMS5003;27971;53.902;9.118;2022-11-20T06:44:07;1.68;1.43;
41382;PMS5003;27971;53.902;9.118;2022-11-20T06:46:11;1.24;1.24;
41382;PMS5003;27971;53.902;9.118;2022-11-20T06:48:13;1.35;1.35;
41382;PMS5003;27971;53.902;9.118;2022-11-20T06:50:15;1.92;1.36;
41382;PMS5003;27971;53.902;9.118;2022-11-20T06:52:18;2.61;2.28;
41382;PMS5003;27971;53.902;9.118;2022-11-20T06:54:21;1.42;1.19;
41382;PMS5003;27971;53.902;9.118;2022-11-20T06:56:24;1.8;1.61;
41382;PMS5003;27971;53.902;9.118;2022-11-20T06:58:27;0.89;0.89;
41382;PMS5003;27971;53.902;9.118;2022-11-20T07:00:29;1.87;1.66;
41382;PMS5003;27971;53.902;9.118;2022-11-20T07:02:32;1.86;1.82;
41382;PMS5003;27971;53.902;9.118;2022-11-20T07:04:34;1.62;1.36;
41382;PMS5003;27971;53.902;9.118;2022-11-20T07:06:36;2.1;1.63;
41382;PMS5003;27971;53.902;9.118;2022-11-20T07:08:40;2.05;1.89;
41382;PMS5003;27971;53.902;9.118;2022-11-20T07:10:42;2.34;1.74;
41382;PMS5003;27971;53.902;9.118;2022-11-20T07:12:48;1.36;1.18;
41382;PMS5003;27971;53.902;9.118;2022-11-20T07:14:47;2.39;1.95;
41382;PMS5003;27971;53.902;9.118;2022-11-20T07:16:49;1.92;1.48;
41382;PMS5003;27971;53.902;9.118;2022-11-20T07:18:52;1.66;1.66;
41382;PMS5003;27971;53.902;9.118;2022-11-20T07:20:55;1.74;1.46;
41382;PMS5003;27971;53.902;9.118;2022-11-20T07:22:57;2.89;2.16;
41382;PMS5003;27971;53.902;9.118;2022-11-20T07:25:00;2.09;1.62;
41382;PMS5003;27971;53.902;9.118;2022-11-20T07:27:03;1.77;1.2;
41382;PMS5003;27971;53.902;9.118;2022-11-20T07:29:05;1.65;1.64;
41382;PMS5003;27971;53.902;9.118;2022-11-20T07:31:07;1.73;1.29;
41382;PMS5003;27971;53.902;9.118;2022-11-20T07:33:09;2.44;2.24;
41382;PMS5003;27971;53.902;9.118;2022-11-20T07:35:13;2.48;2.15;
41382;PMS5003;27971;53.902;9.118;2022-11-20T07:37:16;2.62;2.03;
41382;PMS5003;27971;53.902;9.118;2022-11-20T07:39:18;2.4;2.13;
41382;PMS5003;27971;53.902;9.118;2022-11-20T07:41:20;2.03;1.8;
41382;PMS5003;27971;53.902;9.118;2022-11-20T07:43:23;1.99;1.66;
41382;PMS5003;27971;53.902;9.118;2022-11-20T07:45:26;1.3;0.97;
41382;PMS5003;27971;53.902;9.118;2022-11-20T07:47:28;2.1;1.63;
41382;PMS5003;27971;53.902;9.118;2022-11-20T07:49:31;1.45;1.45;
41382;PMS5003;27971;53.902;9.118;2022-11-20T07:51:33;1.8;1.8;
41382;PMS5003;27971;53.902;9.118;2022-11-20T07:53:36;1.58;1.51;
41382;PMS5003;27971;53.902;9.118;2022-11-20T07:55:39;1.79;1.49;
41382;PMS5003;27971;53.902;9.118;2022-11-20T07:57:41;2.5;1.8;
41382;PMS5003;27971;53.902;9.118;2022-11-20T07:59:43;2.3;2.17;
41382;PMS5003;27971;53.902;9.118;2022-11-20T08:01:46;2.43;1.47;
41382;PMS5003;27971;53.902;9.118;2022-11-20T08:03:48;2.16;2.09;
41382;PMS5003;27971;53.902;9.118;2022-11-20T08:05:50;2.5;1.57;
41382;PMS5003;27971;53.902;9.118;2022-11-20T08:07:53;2.37;2.17;
41382;PMS5003;27971;53.902;9.118;2022-11-20T08:09:55;1.59;1.59;
41382;PMS5003;27971;53.902;9.118;2022-11-20T08:11:58;1.52;1.37;
41382;PMS5003;27971;53.902;9.118;2022-11-20T08:14:01;2.47;1.92;
41382;PMS5003;27971;53.902;9.118;2022-11-20T08:16:04;1.93;1.68;
41382;PMS5003;27971;53.902;9.118;2022-11-20T08:18:08;1.32;1.06;
41382;PMS5003;27971;53.902;9.118;2022-11-20T08:20:10;1.44;0.87;
41382;PMS5003;27971;53.902;9.118;2022-11-20T08:22:13;1.08;0.94;
41382;PMS5003;27971;53.902;9.118;2022-11-20T08:24:16;1.55;1.29;
41382;PMS5003;27971;53.902;9.118;2022-11-20T08:26:18;1.86;1.79;
41382;PMS5003;27971;53.902;9.118;2022-11-20T08:28:21;1.38;1.38;
41382;PMS5003;27971;53.902;9.118;2022-11-20T08:30:23;1.84;1.59;
41382;PMS5003;27971;53.902;9.118;2022-11-20T08:32:26;0.98;0.71;
41382;PMS5003;27971;53.902;9.118;2022-11-20T08:34:28;2.37;2.37;
41382;PMS5003;27971;53.902;9.118;2022-11-20T08:36:33;2.44;1.73;
41382;PMS5003;27971;53.902;9.118;2022-11-20T08:38:34;1.92;1.53;
41382;PMS5003;27971;53.902;9.118;2022-11-20T08:40:37;1.98;1.94;
41382;PMS5003;27971;53.902;9.118;2022-11-20T08:42:45;1.97;1.77;
41382;PMS5003;27971;53.902;9.118;2022-11-20T08:44:43;2.0;1.83;
41382;PMS5003;27971;53.902;9.118;2022-11-20T08:46:45;1.43;1.17;
41382;PMS5003;27971;53.902;9.118;2022-11-20T08:48:47;2.19;2.09;
41382;PMS5003;27971;53.902;9.118;2022-11-20T08:50:50;1.92;1.5;
41382;PMS5003;27971;53.902;9.118;2022-11-20T08:52:52;3.06;1.19;
41382;PMS5003;27971;53.902;9.118;2022-11-20T08:54:55;2.13;1.7;
41382;PMS5003;27971;53.902;9.118;2022-11-20T08:56:57;3.08;1.68;
41382;PMS5003;27971;53.902;9.118;2022-11-20T08:58:59;3.22;2.39;
41382;PMS5003;27971;53.902;9.118;2022-11-20T09:01:02;2.68;1.82;
41382;PMS5003;27971;53.902;9.118;2022-11-20T09:03:05;2.93;1.49;
41382;PMS5003;27971;53.902;9.118;2022-11-20T09:05:08;3.16;2.31;
41382;PMS5003;27971;53.902;9.118;2022-11-20T09:07:10;2.99;2.12;
41382;PMS5003;27971;53.902;9.118;2022-11-20T09:09:13;1.56;1.19;
41382;PMS5003;27971;53.902;9.118;2022-11-20T09:11:15;1.93;1.6;
41382;PMS5003;27971;53.902;9.118;2022-11-20T09:13:17;1.41;0.64;
41382;PMS5003;27971;53.902;9.118;2022-11-20T09:15:19;1.99;1.52;
41382;PMS5003;27971;53.902;9.118;2022-11-20T09:17:22;1.6;0.9;
41382;PMS5003;27971;53.902;9.118;2022-11-20T09:19:25;2.17;2.16;
41382;PMS5003;27971;53.902;9.118;2022-11-20T09:21:28;1.73;1.48;
41382;PMS5003;27971;53.902;9.118;2022-11-20T09:23:32;3.24;2.1;
41382;PMS5003;27971;53.902;9.118;2022-11-20T09:25:34;3.36;1.61;
41382;PMS5003;27971;53.902;9.118;2022-11-20T09:27:36;2.67;1.72;
41382;PMS5003;27971;53.902;9.118;2022-11-20T09:29:39;3.57;2.24;
41382;PMS5003;27971;53.902;9.118;2022-11-20T09:31:41;1.8;1.13;
41382;PMS5003;27971;53.902;9.118;2022-11-20T09:33:43;2.74;1.08;
41382;PMS5003;27971;53.902;9.118;2022-11-20T09:35:46;1.08;0.92;
41382;PMS5003;27971;53.902;9.118;2022-11-20T09:37:48;1.49;1.34;
41382;PMS5003;27971;53.902;9.118;2022-11-20T09:39:51;1.51;1.51;
41382;PMS5003;27971;53.902;9.118;2022-11-20T09:41:58;1.92;1.13;
41382;PMS5003;27971;53.902;9.118;2022-11-20T09:43:58;1.72;1.49;
41382;PMS5003;27971;53.902;9.118;2022-11-20T09:46:03;2.39;1.07;
41382;PMS5003;27971;53.902;9.118;2022-11-20T09:48:08;1.9;1.74;
41382;PMS5003;27971;53.902;9.118;2022-11-20T09:50:10;2.43;1.61;
41382;PMS5003;27971;53.902;9.118;2022-11-20T09:52:10;2.74;1.91;
41382;PMS5003;27971;53.902;9.118;2022-11-20T09:54:14;1.53;1.51;
41382;PMS5003;27971;53.902;9.118;2022-11-20T09:56:15;1.48;1.13;
41382;PMS5003;27971;53.902;9.118;2022-11-20T09:58:21;2.06;1.83;
41382;PMS5003;27971;53.902;9.118;2022-11-20T10:00:21;1.61;1.13;
41382;PMS5003;27971;53.902;9.118;2022-11-20T10:02:25;2.5;1.3;
41382;PMS5003;27971;53.902;9.118;2022-11-20T10:04:27;2.07;1.64;
41382;PMS5003;27971;53.902;9.118;2022-11-20T10:06:30;1.43;1.1;
41382;PMS5003;27971;53.902;9.118;2022-11-20T10:08:34;1.82;1.44;
41382;PMS5003;27971;53.902;9.118;2022-11-20T10:10:36;2.3;1.87;
41382;PMS5003;27971;53.902;9.118;2022-11-20T10:12:42;1.92;1.16;
41382;PMS5003;27971;53.902;9.118;2022-11-20T10:14:45;3.87;2.56;
41382;PMS5003;27971;53.902;9.118;2022-11-20T10:16:46;4.26;2.83;
41382;PMS5003;27971;53.902;9.118;2022-11-20T10:18:51;1.91;1.8;
41382;PMS5003;27971;53.902;9.118;2022-11-20T10:20:51;3.37;2.65;
41382;PMS5003;27971;53.902;9.118;2022-11-20T10:22:54;2.13;1.38;
41382;PMS5003;27971;53.902;9.118;2022-11-20T10:24:55;1.9;1.59;
41382;PMS5003;27971;53.902;9.118;2022-11-20T10:26:59;2.35;1.61;
41382;PMS5003;27971;53.902;9.118;2022-11-20T10:29:02;2.95;2.32;
41382;PMS5003;27971;53.902;9.118;2022-11-20T10:31:04;2.7;1.42;
41382;PMS5003;27971;53.902;9.118;2022-11-20T10:33:06;1.75;1.25;
41382;PMS5003;27971;53.902;9.118;2022-11-20T10:35:14;2.11;1.87;
41382;PMS5003;27971;53.902;9.118;2022-11-20T10:37:11;1.67;1.46;
41382;PMS5003;27971;53.902;9.118;2022-11-20T10:39:15;2.15;2.01;
41382;PMS5003;27971;53.902;9.118;2022-11-20T10:41:16;3.1;2.36;
41382;PMS5003;27971;53.902;9.118;2022-11-20T10:43:19;2.59;2.38;
41382;PMS5003;27971;53.902;9.118;2022-11-20T10:45:22;2.07;1.72;
41382;PMS5003;27971;53.902;9.118;2022-11-20T10:47:24;1.86;1.36;
41382;PMS5003;27971;53.902;9.118;2022-11-20T10:49:26;1.78;1.36;
41382;PMS5003;27971;53.902;9.118;2022-11-20T10:51:31;2.46;1.34;
41382;PMS5003;27971;53.902;9.118;2022-11-20T10:53:38;1.85;1.68;
41382;PMS5003;27971;53.902;9.118;2022-11-20T10:55:38;1.54;1.54;
41382;PMS5003;27971;53.902;9.118;2022-11-20T10:57:44;2.18;1.43;
41382;PMS5003;27971;53.902;9.118;2022-11-20T10:59:51;2.05;1.49;
41382;PMS5003;27971;53.902;9.118;2022-11-20T11:01:42;2.77;2.37;
41382;PMS5003;27971;53.902;9.118;2022-11-20T11:03:45;1.04;0.82;
41382;PMS5003;27971;53.902;9.118;2022-11-20T11:05:48;1.69;0.8;
41382;PMS5003;27971;53.902;9.118;2022-11-20T11:07:52;1.81;1.41;
41382;PMS5003;27971;53.902;9.118;2022-11-20T11:09:55;2.1;1.75;
41382;PMS5003;27971;53.902;9.118;2022-11-20T11:11:58;2.14;1.22;
41382;PMS5003;27971;53.902;9.118;2022-11-20T11:14:04;3.14;2.26;
41382;PMS5003;27971;53.902;9.118;2022-11-20T11:16:04;2.99;2.34;
41382;PMS5003;27971;53.902;9.118;2022-11-20T11:18:08;2.79;1.49;
41382;PMS5003;27971;53.902;9.118;2022-11-20T11:20:15;2.99;1.59;
41382;PMS5003;27971;53.902;9.118;2022-11-20T11:22:15;2.34;2.13;
41382;PMS5003;27971;53.902;9.118;2022-11-20T11:24:18;2.13;1.33;
41382;PMS5003;27971;53.902;9.118;2022-11-20T11:26:18;2.17;1.03;
41382;PMS5003;27971;53.902;9.118;2022-11-20T11:28:21;2.38;1.83;
41382;PMS5003;27971;53.902;9.118;2022-11-20T11:30:24;2.56;1.68;
41382;PMS5003;27971;53.902;9.118;2022-11-20T11:32:26;3.96;2.69;
41382;PMS5003;27971;53.902;9.118;2022-11-20T11:34:28;2.36;1.64;
41382;PMS5003;27971;53.902;9.118;2022-11-20T11:36:32;3.45;1.59;
41382;PMS5003;27971;53.902;9.118;2022-11-20T11:38:35;0.7;0.65;
41382;PMS5003;27971;53.902;9.118;2022-11-20T11:40:37;1.97;1.56;
41382;PMS5003;27971;53.902;9.118;2022-11-20T11:42:41;1.53;0.94;
41382;PMS5003;27971;53.902;9.118;2022-11-20T11:44:44;1.07;0.39;
41382;PMS5003;27971;53.902;9.118;2022-11-20T11:46:49;1.75;1.47;
41382;PMS5003;27971;53.902;9.118;2022-11-20T11:48:54;3.87;1.85;
41382;PMS5003;27971;53.902;9.118;2022-11-20T11:50:51;2.55;1.87;
41382;PMS5003;27971;53.902;9.118;2022-11-20T11:52:56;2.63;2.23;
41382;PMS5003;27971;53.902;9.118;2022-11-20T11:54:57;3.18;2.63;
41382;PMS5003;27971;53.902;9.118;2022-11-20T11:57:00;3.01;1.91;
41382;PMS5003;27971;53.902;9.118;2022-11-20T11:59:04;3.44;2.66;
41382;PMS5003;27971;53.902;9.118;2022-11-20T12:01:07;5.31;3.46;
41382;PMS5003;27971;53.902;9.118;2022-11-20T12:03:09;3.75;3.33;
41382;PMS5003;27971;53.902;9.118;2022-11-20T12:05:16;6.66;4.14;
41382;PMS5003;27971;53.902;9.118;2022-11-20T12:07:15;4.07;3.11;
41382;PMS5003;27971;53.902;9.118;2022-11-20T12:09:16;5.03;3.4;
41382;PMS5003;27971;53.902;9.118;2022-11-20T12:11:20;5.18;3.53;
41382;PMS5003;27971;53.902;9.118;2022-11-20T12:13:26;3.95;3.36;
41382;PMS5003;27971;53.902;9.118;2022-11-20T12:15:26;4.46;3.35;
41382;PMS5003;27971;53.902;9.118;2022-11-20T12:17:28;5.91;3.85;
41382;PMS5003;27971;53.902;9.118;2022-11-20T12:19:31;5.41;3.41;
41382;PMS5003;27971;53.902;9.118;2022-11-20T12:21:35;4.62;3.42;
41382;PMS5003;27971;53.902;9.118;2022-11-20T12:23:38;4.6;3.35;
41382;PMS5003;27971;53.902;9.118;2022-11-20T12:25:38;4.04;2.95;
41382;PMS5003;27971;53.902;9.118;2022-11-20T12:27:43;4.41;3.21;
41382;PMS5003;27971;53.902;9.118;2022-11-20T12:29:46;5.2;3.67;
41382;PMS5003;27971;53.902;9.118;2022-11-20T12:31:50;6.89;3.94;
41382;PMS5003;27971;53.902;9.118;2022-11-20T12:33:51;6.1;4.06;
41382;PMS5003;27971;53.902;9.118;2022-11-20T12:35:54;6.16;3.44;
41382;PMS5003;27971;53.902;9.118;2022-11-20T12:37:59;6.3;4.99;
41382;PMS5003;27971;53.902;9.118;2022-11-20T12:39:57;5.49;2.91;
41382;PMS5003;27971;53.902;9.118;2022-11-20T12:42:16;5.66;3.35;
41382;PMS5003;27971;53.902;9.118;2022-11-20T12:44:03;4.5;3.48;
41382;PMS5003;27971;53.902;9.118;2022-11-20T12:46:08;5.19;3.88;
41382;PMS5003;27971;53.902;9.118;2022-11-20T12:48:15;6.57;4.44;
41382;PMS5003;27971;53.902;9.118;2022-11-20T12:50:12;4.83;3.23;